Time;durP1;ratioP1;P1;durP2;ratioP2;P2;SDS_P1;SDS_P2;PMS_P1;PMS_P2;Temp;Humidity;BMP_temperature;BMP_pressure;BME280_temperature;BME280_humidity;BME280_pressure;Samples;Min_cycle;Max_cycle;Signal;HPM_P1;HPM_P2
2020/12/07 00:00:19;;;;;;;15.05;11.50;;;;;;;0.54;100.00;94065.59;1036333;28;20032;-72
2020/12/07 00:00:50;;;;;;;16.23;13.30;;;;;;;0.54;100.00;94070.75;1044297;28;20105;-72
2020/12/07 00:01:21;;;;;;;14.82;12.05;;;;;;;0.51;100.00;94065.00;1040394;28;20310;-72
2020/12/07 00:01:52;;;;;;;15.23;12.25;;;;;;;0.54;100.00;94068.16;1044516;28;20096;-72
2020/12/07 00:02:23;;;;;;;14.88;12.77;;;;;;;0.56;100.00;94074.09;1032312;28;20026;-72
2020/12/07 00:02:53;;;;;;;13.60;11.52;;;;;;;0.57;100.00;94074.91;1036082;28;20032;-72
2020/12/07 00:03:24;;;;;;;14.00;11.80;;;;;;;0.60;100.00;94074.69;1032395;28;20280;-72
2020/12/07 00:03:55;;;;;;;13.20;11.48;;;;;;;0.66;100.00;94065.78;1036326;28;20498;-72
2020/12/07 00:04:26;;;;;;;12.90;11.07;;;;;;;0.67;100.00;94068.25;1032416;28;20026;-72
2020/12/07 00:04:57;;;;;;;14.30;11.48;;;;;;;0.66;100.00;94073.53;1028139;28;20031;-71
2020/12/07 00:05:29;;;;;;;13.57;10.95;;;;;;;0.63;100.00;94069.38;1036292;28;20042;-73
2020/12/07 00:06:00;;;;;;;13.95;11.63;;;;;;;0.60;100.00;94072.13;1036340;28;20257;-73
2020/12/07 00:06:31;;;;;;;14.00;11.75;;;;;;;0.55;100.00;94064.69;1036332;28;20257;-72
2020/12/07 00:07:04;;;;;;;15.43;12.55;;;;;;;0.63;100.00;94065.97;1036311;28;20265;-72
2020/12/07 00:07:35;;;;;;;15.57;11.70;;;;;;;0.53;100.00;94063.13;1036455;28;20308;-73
2020/12/07 00:08:05;;;;;;;14.95;12.25;;;;;;;0.53;100.00;94058.00;1028346;28;20264;-72
2020/12/07 00:08:36;;;;;;;15.02;11.60;;;;;;;0.51;100.00;94057.25;1032399;28;20026;-72
2020/12/07 00:09:07;;;;;;;14.77;12.30;;;;;;;0.54;100.00;94051.91;1036270;28;20036;-72
2020/12/07 00:09:38;;;;;;;14.48;12.02;;;;;;;0.60;100.00;94048.09;1028332;28;20274;-73
2020/12/07 00:10:09;;;;;;;14.07;11.70;;;;;;;0.52;100.00;94038.28;1032369;28;20105;-73
2020/12/07 00:10:40;;;;;;;14.48;12.15;;;;;;;0.55;100.00;94046.66;1032225;28;20026;-72
2020/12/07 00:11:12;;;;;;;15.20;12.23;;;;;;;0.57;100.00;94044.81;1031990;28;20300;-71
2020/12/07 00:11:47;;;;;;;16.42;12.82;;;;;;;0.56;100.00;94043.16;1040118;28;20489;-72
2020/12/07 00:12:18;;;;;;;15.57;12.30;;;;;;;0.56;100.00;94047.47;1032255;28;20262;-72
2020/12/07 00:12:49;;;;;;;12.80;10.95;;;;;;;0.60;100.00;94048.09;1036313;28;20265;-71
2020/12/07 00:13:20;;;;;;;14.73;11.35;;;;;;;0.54;100.00;94036.44;1032152;28;20026;-72
2020/12/07 00:13:51;;;;;;;14.05;11.48;;;;;;;0.57;100.00;94039.66;1032454;28;20206;-72
2020/12/07 00:14:22;;;;;;;14.27;11.70;;;;;;;0.55;100.00;94043.25;1040321;28;20843;-72
2020/12/07 00:14:53;;;;;;;14.40;11.32;;;;;;;0.52;100.00;94040.84;1036197;28;20030;-71
2020/12/07 00:15:24;;;;;;;15.73;11.82;;;;;;;0.52;100.00;94033.94;1032245;28;20022;-73
2020/12/07 00:15:55;;;;;;;14.85;11.98;;;;;;;0.52;100.00;94039.09;1036469;28;20099;-73
2020/12/07 00:16:26;;;;;;;15.93;12.73;;;;;;;0.48;100.00;94034.25;1032378;28;20296;-72
2020/12/07 00:16:57;;;;;;;15.63;12.55;;;;;;;0.42;100.00;94032.88;1032258;28;20050;-71
2020/12/07 00:17:28;;;;;;;17.58;13.23;;;;;;;0.45;100.00;94030.13;1036368;28;20283;-72
2020/12/07 00:18:01;;;;;;;15.65;12.43;;;;;;;0.46;100.00;94030.94;1028227;28;20027;-72
2020/12/07 00:18:31;;;;;;;18.02;14.60;;;;;;;0.44;100.00;94028.44;1028043;28;20053;-72
2020/12/07 00:19:02;;;;;;;17.20;13.65;;;;;;;0.43;100.00;94028.53;1032089;28;20379;-72
2020/12/07 00:19:33;;;;;;;14.68;12.13;;;;;;;0.49;100.00;94028.16;1028270;28;20031;-72
2020/12/07 00:20:05;;;;;;;15.77;12.60;;;;;;;0.46;100.00;94028.38;1032247;28;20164;-72
2020/12/07 00:20:36;;;;;;;15.55;12.43;;;;;;;0.49;100.00;94031.56;1032309;28;20102;-71
2020/12/07 00:21:07;;;;;;;15.45;12.35;;;;;;;0.48;100.00;94029.09;1032090;28;20297;-72
2020/12/07 00:21:41;;;;;;;16.50;12.90;;;;;;;0.52;100.00;94033.13;1032316;28;20266;-72
2020/12/07 00:22:12;;;;;;;15.75;12.40;;;;;;;0.47;100.00;94028.28;1028197;28;20802;-72
2020/12/07 00:22:42;;;;;;;14.52;11.80;;;;;;;0.51;100.00;94032.31;1028223;28;20282;-72
2020/12/07 00:23:13;;;;;;;15.30;12.95;;;;;;;0.45;100.00;94030.13;1036005;28;20033;-72
2020/12/07 00:23:44;;;;;;;15.63;13.02;;;;;;;0.43;100.00;94034.50;1028391;28;20412;-72
2020/12/07 00:24:15;;;;;;;17.45;13.40;;;;;;;0.42;100.00;94035.44;1032157;28;20412;-72
2020/12/07 00:24:46;;;;;;;17.48;12.80;;;;;;;0.37;100.00;94022.84;1028100;28;20029;-72
2020/12/07 00:25:16;;;;;;;14.77;12.23;;;;;;;0.44;100.00;94023.31;1032185;28;20258;-72
2020/12/07 00:25:48;;;;;;;15.13;13.13;;;;;;;0.45;100.00;94029.28;1040433;28;20454;-72
2020/12/07 00:26:18;;;;;;;18.25;14.45;;;;;;;0.46;100.00;94030.94;1032237;28;20523;-72
2020/12/07 00:26:49;;;;;;;16.75;13.40;;;;;;;0.48;100.00;94029.91;1027974;28;20263;-71
2020/12/07 00:27:23;;;;;;;17.08;13.57;;;;;;;0.46;100.00;94024.03;1020152;29;20043;-73
2020/12/07 00:27:53;;;;;;;18.60;13.82;;;;;;;0.49;100.00;94028.16;1036322;28;20060;-72
2020/12/07 00:28:24;;;;;;;14.95;12.60;;;;;;;0.51;100.00;94027.16;1028229;28;20584;-72
2020/12/07 00:28:58;;;;;;;13.88;11.75;;;;;;;0.53;100.00;94029.66;1032136;28;20022;-72
2020/12/07 00:29:29;;;;;;;18.80;12.00;;;;;;;0.54;100.00;94026.94;1028229;28;20422;-73
2020/12/07 00:30:00;;;;;;;17.17;14.18;;;;;;;0.56;100.00;94026.84;1024125;28;20267;-73
2020/12/07 00:30:31;;;;;;;16.45;13.40;;;;;;;0.57;100.00;94023.38;1028166;28;20027;-72
2020/12/07 00:31:04;;;;;;;16.15;12.75;;;;;;;0.58;100.00;94028.44;1027970;28;20526;-71
2020/12/07 00:31:34;;;;;;;17.55;13.77;;;;;;;0.55;100.00;94026.03;1032079;28;20261;-72
2020/12/07 00:32:05;;;;;;;17.17;13.35;;;;;;;0.57;100.00;94025.94;1036335;28;20256;-72
2020/12/07 00:32:36;;;;;;;15.18;12.70;;;;;;;0.53;100.00;94029.66;1028103;28;20189;-71
2020/12/07 00:33:07;;;;;;;17.77;13.90;;;;;;;0.53;100.00;94016.75;1023973;28;20560;-71
2020/12/07 00:33:37;;;;;;;18.63;13.57;;;;;;;0.57;100.00;94029.34;1032142;28;20431;-72
2020/12/07 00:34:08;;;;;;;18.25;13.10;;;;;;;0.55;100.00;94020.06;1028130;28;20031;-72
2020/12/07 00:34:39;;;;;;;15.88;12.73;;;;;;;0.46;100.00;94024.03;1028080;28;20078;-72
2020/12/07 00:35:10;;;;;;;16.25;12.82;;;;;;;0.47;100.00;94023.13;1032039;28;20030;-72
2020/12/07 00:35:40;;;;;;;17.98;14.02;;;;;;;0.40;100.00;94019.25;1020110;29;20185;-73
2020/12/07 00:36:11;;;;;;;18.45;14.05;;;;;;;0.45;100.00;94021.53;1028210;28;20113;-72
2020/12/07 00:36:43;;;;;;;20.40;15.70;;;;;;;0.46;100.00;94015.47;1024219;28;20023;-73
2020/12/07 00:37:14;;;;;;;17.42;13.82;;;;;;;0.48;100.00;94019.59;1032049;28;20029;-72
2020/12/07 00:37:44;;;;;;;16.38;13.30;;;;;;;0.43;100.00;94013.09;1024157;28;20707;-72
2020/12/07 00:38:15;;;;;;;18.98;14.23;;;;;;;0.39;100.00;94007.28;1032118;28;20121;-73
2020/12/07 00:38:46;;;;;;;17.73;13.60;;;;;;;0.46;100.00;94018.88;1020054;29;20062;-72
2020/12/07 00:39:17;;;;;;;16.42;13.93;;;;;;;0.44;100.00;94018.16;1032092;28;20022;-71
2020/12/07 00:39:48;;;;;;;19.15;15.02;;;;;;;0.38;100.00;94008.22;1028266;28;20471;-72
2020/12/07 00:40:19;;;;;;;20.58;14.45;;;;;;;0.37;100.00;94009.13;1028020;28;20438;-72
2020/12/07 00:40:50;;;;;;;16.70;13.40;;;;;;;0.36;100.00;94005.75;1028026;28;20506;-72
2020/12/07 00:41:23;;;;;;;18.15;13.88;;;;;;;0.43;100.00;94011.31;1028120;28;20328;-71
2020/12/07 00:41:57;;;;;;;18.00;14.30;;;;;;;0.46;100.00;94007.75;1024033;28;20301;-73
2020/12/07 00:42:28;;;;;;;17.38;14.05;;;;;;;0.48;100.00;94013.63;1027927;28;20274;-72
2020/12/07 00:42:59;;;;;;;19.15;14.35;;;;;;;0.41;100.00;94008.03;1031937;28;20253;-71
2020/12/07 00:43:29;;;;;;;17.23;14.23;;;;;;;0.45;100.00;94008.66;1028135;28;20368;-72
2020/12/07 00:44:00;;;;;;;18.80;14.63;;;;;;;0.35;100.00;93998.94;1028189;28;20302;-72
2020/12/07 00:44:31;;;;;;;17.23;13.40;;;;;;;0.45;100.00;94003.50;1028268;28;20041;-72
2020/12/07 00:45:02;;;;;;;18.33;14.40;;;;;;;0.44;100.00;94001.88;1028062;28;20030;-71
2020/12/07 00:45:33;;;;;;;18.67;15.10;;;;;;;0.43;100.00;94005.34;1032219;28;20778;-73
2020/12/07 00:46:04;;;;;;;25.98;16.27;;;;;;;0.44;100.00;94005.28;1032205;28;20270;-72
2020/12/07 00:46:35;;;;;;;18.48;14.82;;;;;;;0.38;100.00;94001.31;1032109;28;20040;-71
2020/12/07 00:47:06;;;;;;;19.05;14.35;;;;;;;0.43;100.00;94002.78;1036034;28;20574;-72
2020/12/07 00:47:37;;;;;;;18.20;14.27;;;;;;;0.44;100.00;94007.84;1028110;28;20616;-73
2020/12/07 00:48:09;;;;;;;20.13;14.07;;;;;;;0.42;100.00;93996.81;1036253;28;20350;-72
2020/12/07 00:48:39;;;;;;;19.08;13.80;;;;;;;0.47;100.00;94006.81;1036228;28;20498;-72
2020/12/07 00:49:10;;;;;;;17.48;14.18;;;;;;;0.51;100.00;94003.97;1032197;28;20289;-72
2020/12/07 00:49:43;;;;;;;18.85;14.50;;;;;;;0.50;100.00;94010.03;1032125;28;20161;-72
2020/12/07 00:50:13;;;;;;;20.77;15.45;;;;;;;0.44;100.00;94007.03;1028076;28;20030;-72
2020/12/07 00:50:44;;;;;;;19.50;15.27;;;;;;;0.47;100.00;94012.81;1027951;28;20333;-71
2020/12/07 00:51:18;;;;;;;20.35;14.48;;;;;;;0.43;100.00;94019.06;1028005;28;20062;-72
2020/12/07 00:51:49;;;;;;;17.75;13.27;;;;;;;0.42;100.00;94016.59;1032353;28;20321;-72
2020/12/07 00:52:20;;;;;;;17.45;14.48;;;;;;;0.44;100.00;94015.56;1032053;28;20650;-72
2020/12/07 00:52:51;;;;;;;18.67;14.25;;;;;;;0.46;100.00;94020.63;1028099;28;20022;-72
2020/12/07 00:53:22;;;;;;;18.00;14.10;;;;;;;0.46;100.00;94016.31;1027940;28;20830;-72
2020/12/07 00:53:53;;;;;;;17.67;13.85;;;;;;;0.48;100.00;94027.34;1028279;28;20118;-72
2020/12/07 00:54:24;;;;;;;17.10;13.50;;;;;;;0.47;100.00;94024.84;1028099;28;20344;-72
2020/12/07 00:54:54;;;;;;;17.58;14.23;;;;;;;0.44;100.00;94022.47;1036204;28;20272;-71
2020/12/07 00:55:26;;;;;;;16.75;13.23;;;;;;;0.47;100.00;94023.13;1028106;28;20030;-72
2020/12/07 00:55:56;;;;;;;18.05;14.43;;;;;;;0.50;100.00;94027.25;1024278;28;20030;-71
2020/12/07 00:56:27;;;;;;;16.70;13.13;;;;;;;0.52;100.00;94036.53;1032156;28;20651;-72
2020/12/07 00:56:59;;;;;;;17.73;13.60;;;;;;;0.52;100.00;94039.09;1023975;28;20074;-71
2020/12/07 00:57:30;;;;;;;18.80;15.15;;;;;;;0.52;100.00;94039.09;1028113;28;20180;-73
2020/12/07 00:58:00;;;;;;;19.02;14.48;;;;;;;0.55;100.00;94041.50;1028284;28;20734;-73
2020/12/07 00:58:31;;;;;;;19.65;15.23;;;;;;;0.56;100.00;94044.91;1028108;28;20026;-72
2020/12/07 00:59:02;;;;;;;19.13;15.13;;;;;;;0.56;100.00;94047.47;1027981;28;20482;-71
2020/12/07 00:59:33;;;;;;;18.30;13.90;;;;;;;0.50;100.00;94053.84;1024254;29;20492;-72
2020/12/07 01:00:05;;;;;;;19.25;15.02;;;;;;;0.52;100.00;94061.47;1036187;28;20422;-72
2020/12/07 01:00:36;;;;;;;17.80;13.52;;;;;;;0.52;100.00;94057.13;1032110;28;20506;-72
2020/12/07 01:01:06;;;;;;;20.10;14.85;;;;;;;0.51;100.00;94060.66;1031913;28;20348;-72
2020/12/07 01:01:37;;;;;;;19.38;15.18;;;;;;;0.53;100.00;94065.72;1028200;28;20372;-72
2020/12/07 01:02:08;;;;;;;17.77;14.68;;;;;;;0.61;100.00;94071.22;1028164;28;20119;-72
2020/12/07 01:02:39;;;;;;;17.17;14.25;;;;;;;0.62;100.00;94077.19;1028041;28;20835;-72
2020/12/07 01:03:10;;;;;;;19.08;15.15;;;;;;;0.62;100.00;94083.19;1027856;28;20113;-71
2020/12/07 01:03:40;;;;;;;18.35;14.85;;;;;;;0.60;100.00;94091.91;1028010;28;20027;-73
2020/12/07 01:04:11;;;;;;;19.55;14.43;;;;;;;0.53;100.00;94099.22;1032121;28;20364;-72
2020/12/07 01:04:42;;;;;;;21.65;16.05;;;;;;;0.46;100.00;94106.47;1028032;28;20014;-72
2020/12/07 01:05:13;;;;;;;19.33;14.60;;;;;;;0.45;100.00;94115.13;1032164;28;20566;-71
2020/12/07 01:05:43;;;;;;;20.83;15.73;;;;;;;0.41;100.00;94108.50;1036125;28;20396;-72
2020/12/07 01:06:14;;;;;;;19.42;14.10;;;;;;;0.44;100.00;94115.22;1032027;28;20094;-73
2020/12/07 01:06:45;;;;;;;21.50;15.63;;;;;;;0.44;100.00;94123.78;1024031;28;20478;-72
2020/12/07 01:07:16;;;;;;;18.90;14.82;;;;;;;0.47;100.00;94118.44;1032027;28;20053;-72
2020/12/07 01:07:48;;;;;;;21.52;15.75;;;;;;;0.47;100.00;94115.03;1032060;28;20746;-73
2020/12/07 01:08:19;;;;;;;19.65;15.25;;;;;;;0.54;100.00;94118.88;1036136;28;20022;-72
2020/12/07 01:08:50;;;;;;;20.77;15.52;;;;;;;0.51;100.00;94122.50;1036039;28;20625;-72
2020/12/07 01:09:21;;;;;;;19.55;14.70;;;;;;;0.52;100.00;94118.97;1024171;29;20275;-72
2020/12/07 01:09:53;;;;;;;19.23;15.13;;;;;;;0.51;100.00;94117.34;1031988;28;20039;-72
2020/12/07 01:10:23;;;;;;;18.55;15.18;;;;;;;0.48;100.00;94121.84;1028067;28;20246;-72
2020/12/07 01:10:56;;;;;;;18.08;14.63;;;;;;;0.52;100.00;94131.84;1031842;28;20254;-71
2020/12/07 01:11:27;;;;;;;19.58;15.43;;;;;;;0.43;100.00;94119.53;1031504;28;20042;-72
2020/12/07 01:11:59;;;;;;;17.33;13.13;;;;;;;0.52;100.00;94139.59;1032017;28;20690;-72
2020/12/07 01:12:30;;;;;;;20.40;15.93;;;;;;;0.55;100.00;94142.00;1032091;28;20266;-72
2020/12/07 01:13:00;;;;;;;19.63;14.93;;;;;;;0.46;100.00;94142.53;1027853;28;20740;-72
2020/12/07 01:13:31;;;;;;;17.27;14.55;;;;;;;0.56;100.00;94137.66;1032120;28;20073;-73
2020/12/07 01:14:02;;;;;;;16.48;13.35;;;;;;;0.54;100.00;94147.22;1024209;28;20019;-71
2020/12/07 01:14:33;;;;;;;16.88;13.63;;;;;;;0.60;100.00;94146.03;1023983;29;20503;-72
2020/12/07 01:15:04;;;;;;;14.95;12.88;;;;;;;0.56;100.00;94151.41;1031375;28;20041;-72
2020/12/07 01:15:34;;;;;;;17.33;14.18;;;;;;;0.56;100.00;94150.53;1028163;28;20418;-72
2020/12/07 01:16:05;;;;;;;16.77;13.82;;;;;;;0.62;100.00;94151.91;1028062;28;20022;-72
2020/12/07 01:16:36;;;;;;;16.77;14.20;;;;;;;0.69;100.00;94154.03;1024179;29;20096;-71
2020/12/07 01:17:07;;;;;;;17.80;14.38;;;;;;;0.59;100.00;94158.09;1028045;28;20011;-72
2020/12/07 01:17:38;;;;;;;19.38;14.98;;;;;;;0.57;100.00;94165.91;1032205;28;20014;-73
2020/12/07 01:18:08;;;;;;;17.75;13.82;;;;;;;0.58;100.00;94162.44;1024950;28;20247;-72
2020/12/07 01:18:39;;;;;;;18.60;15.48;;;;;;;0.61;100.00;94160.59;1036092;28;20107;-71
2020/12/07 01:19:10;;;;;;;16.13;13.82;;;;;;;0.63;100.00;94157.00;1028050;28;20496;-72
2020/12/07 01:19:40;;;;;;;18.63;14.02;;;;;;;0.58;100.00;94165.00;1032154;28;20032;-72
2020/12/07 01:20:11;;;;;;;19.70;15.38;;;;;;;0.55;100.00;94157.44;1036114;28;20025;-73
2020/12/07 01:20:42;;;;;;;18.63;15.07;;;;;;;0.58;100.00;94151.28;1032006;28;20399;-72
2020/12/07 01:21:14;;;;;;;18.42;14.73;;;;;;;0.64;100.00;94150.94;1032049;28;20030;-71
2020/12/07 01:21:45;;;;;;;20.33;15.60;;;;;;;0.65;100.00;94150.00;1028046;28;20101;-72
2020/12/07 01:22:15;;;;;;;20.05;15.35;;;;;;;0.67;100.00;94139.59;1032153;28;20265;-73
2020/12/07 01:22:46;;;;;;;19.20;15.20;;;;;;;0.65;100.00;94144.00;1027931;28;20035;-72
2020/12/07 01:23:17;;;;;;;19.77;14.98;;;;;;;0.64;100.00;94145.78;1031978;28;20092;-72
2020/12/07 01:23:48;;;;;;;16.98;14.45;;;;;;;0.59;100.00;94142.63;1032075;28;20042;-73
2020/12/07 01:24:18;;;;;;;18.50;15.05;;;;;;;0.54;100.00;94135.16;1032231;28;20032;-72
2020/12/07 01:24:49;;;;;;;16.42;13.68;;;;;;;0.61;100.00;94140.78;1031927;28;20026;-71
2020/12/07 01:25:20;;;;;;;16.08;14.02;;;;;;;0.62;100.00;94141.63;1028097;28;20038;-72
2020/12/07 01:25:51;;;;;;;17.73;14.85;;;;;;;0.63;100.00;94135.56;1036124;28;20022;-72
2020/12/07 01:26:21;;;;;;;16.15;13.88;;;;;;;0.65;100.00;94133.72;1028080;28;20026;-73
2020/12/07 01:26:53;;;;;;;15.30;12.85;;;;;;;0.63;100.00;94127.81;1031718;28;20031;-71
2020/12/07 01:27:23;;;;;;;17.33;14.57;;;;;;;0.62;100.00;94124.44;1032054;28;20031;-73
2020/12/07 01:27:54;;;;;;;16.13;13.73;;;;;;;0.65;100.00;94121.63;1040185;28;20260;-72
2020/12/07 01:28:25;;;;;;;17.25;14.88;;;;;;;0.63;100.00;94122.66;1036072;28;20049;-73
2020/12/07 01:28:57;;;;;;;16.52;13.82;;;;;;;0.67;100.00;94117.22;1035890;28;20779;-72
2020/12/07 01:29:28;;;;;;;15.20;13.35;;;;;;;0.61;100.00;94117.59;1036020;28;20030;-72
2020/12/07 01:29:59;;;;;;;16.52;13.95;;;;;;;0.62;100.00;94113.25;1031870;28;20318;-72
2020/12/07 01:30:30;;;;;;;16.13;13.23;;;;;;;0.66;100.00;94109.59;1035984;28;20021;-72
2020/12/07 01:31:01;;;;;;;17.00;14.23;;;;;;;0.65;100.00;94103.59;1031733;28;20499;-71
2020/12/07 01:31:32;;;;;;;14.65;12.73;;;;;;;0.63;100.00;94100.28;1036036;28;20553;-73
2020/12/07 01:32:02;;;;;;;17.13;13.88;;;;;;;0.63;100.00;94100.28;1031943;28;20264;-73
2020/12/07 01:32:33;;;;;;;17.35;14.35;;;;;;;0.63;100.00;94096.91;1027874;28;20023;-72
2020/12/07 01:33:04;;;;;;;17.88;14.48;;;;;;;0.62;100.00;94088.34;1031679;28;20026;-72
2020/12/07 01:33:35;;;;;;;19.25;15.52;;;;;;;0.57;100.00;94085.22;1031930;28;20023;-73
2020/12/07 01:34:06;;;;;;;17.75;14.25;;;;;;;0.51;100.00;94081.25;1032037;28;20045;-72
2020/12/07 01:34:37;;;;;;;16.52;14.07;;;;;;;0.50;100.00;94065.91;1027911;28;20027;-72
2020/12/07 01:35:09;;;;;;;17.67;15.10;;;;;;;0.60;100.00;94076.47;1035948;28;20040;-71
2020/12/07 01:35:42;;;;;;;16.08;14.23;;;;;;;0.57;100.00;94082.63;1035871;28;20116;-73
2020/12/07 01:36:13;;;;;;;16.23;14.35;;;;;;;0.56;100.00;94075.81;1031963;28;20257;-73
2020/12/07 01:36:44;;;;;;;16.50;13.18;;;;;;;0.56;100.00;94074.09;1031775;28;20332;-71
2020/12/07 01:37:15;;;;;;;17.10;14.13;;;;;;;0.56;100.00;94074.09;1035885;28;20883;-72
2020/12/07 01:37:45;;;;;;;17.95;14.70;;;;;;;0.60;100.00;94076.47;1036055;28;20022;-72
2020/12/07 01:38:16;;;;;;;16.50;14.50;;;;;;;0.60;100.00;94072.13;1032007;28;20341;-72
2020/12/07 01:38:47;;;;;;;16.58;13.82;;;;;;;0.61;100.00;94080.69;1039948;28;20486;-71
2020/12/07 01:39:18;;;;;;;15.50;12.98;;;;;;;0.62;100.00;94074.59;1035966;28;20022;-72
2020/12/07 01:39:49;;;;;;;16.52;14.13;;;;;;;0.63;100.00;94081.44;1035957;28;20030;-73
2020/12/07 01:40:20;;;;;;;17.50;14.35;;;;;;;0.63;100.00;94073.69;1036108;28;20131;-72
2020/12/07 01:40:51;;;;;;;16.17;14.13;;;;;;;0.55;100.00;94077.56;1039833;28;20712;-72
2020/12/07 01:41:22;;;;;;;17.10;14.60;;;;;;;0.55;100.00;94077.56;1035824;28;20025;-72
2020/12/07 01:41:54;;;;;;;16.95;14.63;;;;;;;0.53;100.00;94081.19;1031967;28;20049;-72
2020/12/07 01:42:25;;;;;;;18.25;14.45;;;;;;;0.53;100.00;94083.75;1027879;28;20029;-72
2020/12/07 01:42:57;;;;;;;19.50;14.73;;;;;;;0.55;100.00;94087.06;1039721;28;20271;-71
2020/12/07 01:43:28;;;;;;;15.32;13.70;;;;;;;0.59;100.00;94093.69;1040059;28;20112;-73
2020/12/07 01:43:58;;;;;;;17.80;13.63;;;;;;;0.58;100.00;94107.47;1035848;28;20271;-72
2020/12/07 01:44:29;;;;;;;17.23;14.32;;;;;;;0.56;100.00;94099.84;1031938;28;20076;-73
2020/12/07 01:45:00;;;;;;;15.85;13.68;;;;;;;0.60;100.00;94107.38;1035734;28;20757;-72
2020/12/07 01:45:31;;;;;;;17.95;14.32;;;;;;;0.57;100.00;94111.81;1036072;28;20030;-72
2020/12/07 01:46:02;;;;;;;16.40;13.50;;;;;;;0.57;100.00;94108.41;1035834;28;20626;-72
2020/12/07 01:46:33;;;;;;;16.60;13.02;;;;;;;0.52;100.00;94106.09;1027859;28;20072;-72
2020/12/07 01:47:17;;;;;;;16.25;13.20;;;;;;;0.52;100.00;94107.84;1031723;28;20519;-72
2020/12/07 01:47:48;;;;;;;16.63;13.63;;;;;;;0.58;100.00;94120.34;1027924;28;20273;-73
2020/12/07 01:48:20;;;;;;;16.80;13.60;;;;;;;0.58;100.00;94125.50;1036012;28;20261;-72
2020/12/07 01:48:52;;;;;;;17.60;13.75;;;;;;;0.59;100.00;94124.59;1039788;28;20056;-72
2020/12/07 01:49:24;;;;;;;17.83;14.05;;;;;;;0.52;100.00;94120.72;1031869;28;20365;-73
2020/12/07 01:49:55;;;;;;;16.45;13.77;;;;;;;0.54;100.00;94122.28;1031902;28;20421;-73
2020/12/07 01:50:26;;;;;;;18.60;14.80;;;;;;;0.52;100.00;94128.47;1031786;28;20505;-72
2020/12/07 01:50:57;;;;;;;19.45;14.93;;;;;;;0.49;100.00;94126.06;1027627;28;20018;-72
2020/12/07 01:51:28;;;;;;;17.63;14.35;;;;;;;0.53;100.00;94133.53;1035916;28;20281;-72
2020/12/07 01:51:59;;;;;;;15.63;13.10;;;;;;;0.54;100.00;94137.75;1027809;28;20165;-72
2020/12/07 01:52:30;;;;;;;16.48;13.82;;;;;;;0.54;100.00;94140.31;1027836;28;20037;-73
2020/12/07 01:53:01;;;;;;;17.48;14.75;;;;;;;0.53;100.00;94140.44;1031654;28;20284;-72
2020/12/07 01:53:32;;;;;;;17.08;14.00;;;;;;;0.54;100.00;94142.06;1031896;28;20081;-72
2020/12/07 01:54:03;;;;;;;19.90;15.07;;;;;;;0.56;100.00;94148.81;1035374;28;20356;-72
2020/12/07 01:54:34;;;;;;;16.35;13.38;;;;;;;0.47;100.00;94157.09;1035788;28;20273;-72
2020/12/07 01:55:05;;;;;;;18.35;14.60;;;;;;;0.44;100.00;94152.13;1031804;28;20273;-72
2020/12/07 01:55:37;;;;;;;17.10;13.75;;;;;;;0.45;100.00;94158.94;1031990;28;20475;-72
2020/12/07 01:56:10;;;;;;;19.85;14.90;;;;;;;0.46;100.00;94157.19;1031935;28;20036;-73
2020/12/07 01:56:41;;;;;;;18.10;15.02;;;;;;;0.52;100.00;94156.81;1035861;28;20625;-72
2020/12/07 01:57:13;;;;;;;16.45;14.23;;;;;;;0.52;100.00;94154.22;1044029;28;20272;-72
2020/12/07 01:57:44;;;;;;;15.25;13.65;;;;;;;0.60;100.00;94162.31;1040133;28;20036;-73
2020/12/07 01:58:15;;;;;;;16.33;14.27;;;;;;;0.61;100.00;94165.75;1040050;28;20268;-73
2020/12/07 01:58:46;;;;;;;16.17;13.50;;;;;;;0.63;100.00;94156.16;1027803;28;20033;-72
2020/12/07 01:59:17;;;;;;;15.45;13.13;;;;;;;0.64;100.00;94158.66;1031770;28;20262;-72
2020/12/07 01:59:48;;;;;;;15.43;13.27;;;;;;;0.55;100.00;94160.03;1036075;28;20104;-72
2020/12/07 02:00:19;;;;;;;16.20;13.25;;;;;;;0.52;100.00;94161.97;1036032;28;20128;-73
2020/12/07 02:00:49;;;;;;;16.70;14.60;;;;;;;0.49;100.00;94156.97;1031707;28;20026;-72
2020/12/07 02:01:20;;;;;;;16.67;13.25;;;;;;;0.53;100.00;94164.44;1031953;28;20030;-72
2020/12/07 02:02:10;;;;;;;17.83;13.85;;;;;;;0.49;100.00;94165.56;1036106;28;20470;-72
2020/12/07 02:02:41;;;;;;;19.98;15.13;;;;;;;0.48;100.00;94168.22;1031826;28;20030;-72
2020/12/07 02:03:12;;;;;;;17.23;13.80;;;;;;;0.49;100.00;94162.97;1035745;28;20256;-72
2020/12/07 02:03:42;;;;;;;16.98;13.77;;;;;;;0.49;100.00;94165.56;1036094;28;20478;-72
2020/12/07 02:04:14;;;;;;;16.77;13.88;;;;;;;0.48;100.00;94161.31;1035813;28;20032;-73
2020/12/07 02:04:44;;;;;;;18.25;14.63;;;;;;;0.53;100.00;94161.06;1031914;28;20429;-72
2020/12/07 02:05:15;;;;;;;17.02;14.10;;;;;;;0.46;100.00;94168.31;1035936;28;20327;-72
2020/12/07 02:05:46;;;;;;;18.08;13.95;;;;;;;0.51;100.00;94165.47;1031998;28;20046;-72
2020/12/07 02:06:17;;;;;;;16.33;14.38;;;;;;;0.44;100.00;94159.84;1036035;28;20076;-73
2020/12/07 02:06:48;;;;;;;17.13;14.27;;;;;;;0.47;100.00;94169.97;1027871;28;20122;-71
2020/12/07 02:07:18;;;;;;;17.92;14.55;;;;;;;0.51;100.00;94170.63;1036494;28;20026;-71
2020/12/07 02:07:50;;;;;;;18.95;14.52;;;;;;;0.54;100.00;94173.00;1036527;28;20084;-72
2020/12/07 02:08:21;;;;;;;19.13;14.50;;;;;;;0.51;100.00;94157.75;1038180;28;20080;-73
2020/12/07 02:08:52;;;;;;;15.18;13.50;;;;;;;0.60;100.00;94167.47;1039972;28;20687;-72
2020/12/07 02:09:30;;;;;;;19.25;15.63;;;;;;;0.53;100.00;94163.63;1035915;28;20283;-73
2020/12/07 02:10:01;;;;;;;18.70;14.77;;;;;;;0.49;100.00;94167.28;1040057;28;20026;-72
2020/12/07 02:10:32;;;;;;;17.25;14.65;;;;;;;0.46;100.00;94162.34;1039938;28;20279;-72
2020/12/07 02:11:03;;;;;;;18.23;14.57;;;;;;;0.39;100.00;94159.28;1031654;28;20030;-72
2020/12/07 02:11:34;;;;;;;17.42;14.50;;;;;;;0.49;100.00;94162.13;1035284;28;20436;-72
2020/12/07 02:12:06;;;;;;;17.42;14.68;;;;;;;0.54;100.00;94157.53;1031710;28;20018;-73
2020/12/07 02:12:36;;;;;;;15.85;13.60;;;;;;;0.52;100.00;94160.19;1035918;28;20557;-72
2020/12/07 02:13:07;;;;;;;15.55;13.52;;;;;;;0.47;100.00;94151.09;1031649;28;20265;-72
2020/12/07 02:13:38;;;;;;;16.20;13.80;;;;;;;0.41;100.00;94149.72;1040046;28;20018;-72
2020/12/07 02:14:09;;;;;;;18.17;14.68;;;;;;;0.47;100.00;94146.78;1031876;28;20014;-73
2020/12/07 02:14:40;;;;;;;16.30;14.25;;;;;;;0.47;100.00;94151.09;1027858;28;20101;-72
2020/12/07 02:15:11;;;;;;;18.10;14.77;;;;;;;0.48;100.00;94147.59;1027880;28;20077;-72
2020/12/07 02:15:42;;;;;;;16.80;13.73;;;;;;;0.49;100.00;94144.94;1027965;28;20620;-72
2020/12/07 02:16:13;;;;;;;17.80;14.70;;;;;;;0.49;100.00;94150.09;1035965;28;20462;-72
2020/12/07 02:16:43;;;;;;;15.60;13.52;;;;;;;0.52;100.00;94141.34;1039957;28;20433;-72
2020/12/07 02:17:14;;;;;;;16.65;13.35;;;;;;;0.46;100.00;94134.81;1039871;28;20256;-72
2020/12/07 02:17:45;;;;;;;15.88;13.43;;;;;;;0.52;100.00;94138.78;1036188;28;20030;-72
2020/12/07 02:18:16;;;;;;;16.02;13.15;;;;;;;0.43;100.00;94141.91;1039800;28;20116;-72
2020/12/07 02:18:47;;;;;;;16.90;13.82;;;;;;;0.44;100.00;94131.50;1040012;28;20029;-71
2020/12/07 02:19:18;;;;;;;16.90;14.07;;;;;;;0.45;100.00;94134.91;1031946;28;20049;-72
2020/12/07 02:19:50;;;;;;;16.00;13.30;;;;;;;0.48;100.00;94140.69;1036191;28;20387;-73
2020/12/07 02:20:20;;;;;;;13.40;11.65;;;;;;;0.49;100.00;94139.78;1036125;28;20113;-73
2020/12/07 02:20:51;;;;;;;15.05;12.25;;;;;;;0.49;100.00;94133.78;1040005;28;20728;-72
2020/12/07 02:21:22;;;;;;;15.30;12.60;;;;;;;0.44;100.00;94134.09;1035994;28;20456;-72
2020/12/07 02:21:53;;;;;;;13.88;11.77;;;;;;;0.46;100.00;94132.22;1035917;28;20022;-73
2020/12/07 02:22:24;;;;;;;13.88;11.40;;;;;;;0.47;100.00;94133.06;1032169;28;20014;-72
2020/12/07 02:22:55;;;;;;;14.45;12.07;;;;;;;0.42;100.00;94141.06;1032041;28;20269;-72
2020/12/07 02:23:26;;;;;;;13.75;11.80;;;;;;;0.44;100.00;94144.38;1033541;28;20030;-72